LFSG/EPL METAR and TAF weather

Enter ICAO airport designator
Station Type Date Time Source
LFSG METAR 2020/02/24 08:00 UTC NOAA

LFSG 240800Z AUTO 23013KT 9999 OVC009 10/08 Q1023


Station Type Date Time Source
LFSG Decoded METAR 2020/02/24 08:00 UTC NOAA

Station name not available
Feb 24, 2020 - 03:00 AM EST / 2020.02.24 0800 UTC
Wind: from the SW (230 degrees) at 15 MPH (13 KT):0
Visibility: greater than 7 mile(s):0
Sky conditions: overcast
Temperature: 50 F (10 C)
Dew Point: 46 F (8 C)
Relative Humidity: 87%
Pressure (altimeter): 30.21 in. Hg (1023 hPa)
ob: LFSG 240800Z AUTO 23013KT 9999 OVC009 10/08 Q1023
cycle: 8

Station Type Date Time Source
LFSG TAF UTC NOAA

Error!

Example: see airport list